Time;durP1;ratioP1;P1;durP2;ratioP2;P2;SDS_P1;SDS_P2;PMS_P1;PMS_P2;Temp;Humidity;BMP_temperature;BMP_pressure;BME280_temperature;BME280_humidity;BME280_pressure;Samples;Min_cycle;Max_cycle;Signal;HPM_P1;HPM_P2
2023/12/04 00:00:29;;;;;;;10.27;6.27;;;-2.00;99.90;-3.30;100476;;;;583904;246;25125;-91
2023/12/04 00:02:54;;;;;;;12.03;8.57;;;-2.00;99.90;-3.30;100474;;;;584493;240;24121;-87
2023/12/04 00:05:22;;;;;;;17.20;8.17;;;-2.10;99.90;-3.30;100480;;;;583230;246;24120;-88
2023/12/04 00:07:50;;;;;;;13.70;7.77;;;-2.00;99.90;-3.20;100479;;;;584798;240;24082;-90
2023/12/04 00:10:22;;;;;;;9.67;5.90;;;-2.00;99.90;-3.20;100478;;;;583034;246;24152;-90
2023/12/04 00:12:50;;;;;;;13.13;7.07;;;-2.00;99.90;-3.10;100474;;;;572397;251;24127;-90
2023/12/04 00:15:15;;;;;;;11.70;6.20;;;-2.00;99.90;-3.20;100481;;;;582679;246;24175;-90
2023/12/04 00:17:43;;;;;;;8.07;5.83;;;-2.00;99.90;-3.30;100485;;;;583267;246;24118;-90
2023/12/04 00:20:12;;;;;;;8.33;5.50;;;-2.10;99.90;-3.30;100479;;;;584294;243;24073;-90
2023/12/04 00:22:40;;;;;;;8.67;5.10;;;-2.20;99.90;-3.30;100495;;;;582921;246;24152;-90
2023/12/04 00:25:08;;;;;;;10.17;5.93;;;-2.10;99.90;-3.30;100492;;;;584078;243;24106;-90
2023/12/04 00:27:36;;;;;;;7.37;4.53;;;-2.10;99.90;-3.30;100490;;;;583178;246;24139;-90
2023/12/04 00:30:08;;;;;;;9.20;5.30;;;-2.20;99.90;-3.40;100483;;;;584546;240;24076;-91
2023/12/04 00:32:36;;;;;;;8.90;5.33;;;-2.30;99.90;-3.40;100484;;;;572123;251;24162;-90
2023/12/04 00:35:04;;;;;;;12.37;7.63;;;-2.30;99.90;-3.50;100491;;;;583310;246;24125;-90
2023/12/04 00:37:37;;;;;;;6.73;5.40;;;-2.40;99.90;-3.60;100492;;;;584767;240;24080;-90
2023/12/04 00:40:01;;;;;;;6.80;5.47;;;-2.40;99.90;-3.70;100482;;;;583088;246;24141;-90
2023/12/04 00:42:29;;;;;;;6.73;5.73;;;-2.30;99.90;-3.70;100481;;;;585008;243;24078;-90
2023/12/04 00:45:00;;;;;;;10.83;6.23;;;-2.40;99.90;-3.70;100484;;;;584065;246;24144;-89
2023/12/04 00:47:25;;;;;;;7.47;6.10;;;-2.30;99.90;-3.60;100485;;;;568398;247;35522;-89
2023/12/04 00:49:53;;;;;;;6.93;5.57;;;-2.40;99.90;-3.50;100499;;;;584214;242;24114;-88
2023/12/04 00:52:21;;;;;;;6.87;5.37;;;-2.20;99.90;-3.40;100493;;;;584240;246;24070;-90
2023/12/04 00:54:54;;;;;;;6.33;4.50;;;-2.20;99.90;-3.40;100498;;;;584965;240;24145;-89
2023/12/04 00:57:22;;;;;;;13.33;6.53;;;-2.10;99.90;-3.30;100498;;;;584626;245;24122;-89
2023/12/04 00:59:47;;;;;;;9.03;5.27;;;-2.10;99.90;-3.20;100497;;;;584818;245;24100;-88
2023/12/04 01:02:17;;;;;;;6.50;4.73;;;-2.00;99.90;-3.20;100515;;;;572996;246;24135;-89
2023/12/04 01:04:47;;;;;;;5.53;4.87;;;-1.90;99.90;-3.20;100512;;;;573349;250;24143;-89
2023/12/04 01:07:18;;;;;;;9.80;5.50;;;-1.90;99.90;-3.10;100511;;;;572314;247;24125;-90
2023/12/04 01:09:46;;;;;;;7.00;5.07;;;-1.90;99.90;-3.00;100511;;;;583256;246;24122;-90
2023/12/04 01:12:10;;;;;;;7.43;4.47;;;-1.80;99.90;-3.00;100511;;;;584722;244;24072;-91
2023/12/04 01:14:41;;;;;;;8.73;5.20;;;-1.70;99.90;-2.90;100515;;;;589819;243;24085;-89
2023/12/04 01:17:09;;;;;;;5.70;4.13;;;-1.70;99.90;-2.90;100521;;;;588474;243;24081;-90
2023/12/04 01:19:37;;;;;;;5.70;4.47;;;-1.70;99.90;-2.90;100521;;;;587820;244;24136;-92
2023/12/04 01:22:05;;;;;;;8.00;5.23;;;-1.70;99.90;-2.80;100521;;;;587836;244;24090;-89
2023/12/04 01:24:33;;;;;;;5.10;4.60;;;-1.60;99.90;-2.80;100522;;;;587850;244;24053;-88
2023/12/04 01:27:01;;;;;;;5.43;4.20;;;-1.60;99.90;-2.80;100515;;;;587925;244;24075;-87
2023/12/04 01:29:33;;;;;;;7.10;4.50;;;-1.60;99.90;-2.80;100529;;;;588224;244;24317;-90
2023/12/04 01:31:57;;;;;;;7.57;5.17;;;-1.60;99.90;-2.80;100528;;;;588391;244;24106;-89
2023/12/04 01:34:26;;;;;;;7.80;4.63;;;-1.60;99.90;-2.80;100539;;;;588301;244;24128;-89
2023/12/04 01:36:54;;;;;;;8.30;4.90;;;-1.60;99.90;-2.80;100523;;;;588316;244;24129;-91
2023/12/04 01:39:22;;;;;;;6.47;4.87;;;-1.60;99.90;-2.80;100532;;;;588167;244;24101;-90
2023/12/04 01:41:50;;;;;;;4.20;3.80;;;-1.60;99.90;-2.90;100526;;;;588363;244;24083;-90
2023/12/04 01:44:21;;;;;;;5.80;4.40;;;-1.60;99.90;-2.80;100534;;;;587961;244;24136;-90
2023/12/04 01:46:51;;;;;;;6.40;4.50;;;-1.60;99.90;-2.90;100537;;;;587805;244;24122;-89
2023/12/04 01:49:18;;;;;;;5.53;4.13;;;-1.70;99.90;-2.90;100542;;;;587735;244;24062;-91
2023/12/04 01:51:46;;;;;;;6.70;4.70;;;-1.80;99.90;-3.00;100526;;;;588309;244;24090;-91
2023/12/04 01:54:14;;;;;;;8.20;5.37;;;-1.90;99.90;-3.10;100528;;;;584928;242;24114;-91
2023/12/04 01:56:43;;;;;;;5.70;4.93;;;-1.70;99.90;-3.20;100523;;;;583715;244;24075;-90
2023/12/04 01:59:07;;;;;;;6.97;3.90;;;-2.00;99.90;-3.20;100523;;;;583361;246;24143;-89
2023/12/04 02:01:35;;;;;;;6.30;4.23;;;-2.10;99.90;-3.20;100520;;;;583864;246;24160;-90
2023/12/04 02:04:03;;;;;;;5.83;4.27;;;-2.00;99.90;-3.20;100525;;;;583957;242;24123;-88
2023/12/04 02:06:32;;;;;;;7.63;5.70;;;-2.00;99.90;-3.10;100523;;;;585270;243;24090;-89
2023/12/04 02:09:01;;;;;;;6.27;4.40;;;-1.90;99.90;-3.10;100525;;;;585588;245;24105;-89
2023/12/04 02:11:28;;;;;;;6.13;4.73;;;-1.90;99.90;-3.00;100522;;;;585720;242;24109;-89
2023/12/04 02:13:56;;;;;;;5.40;4.13;;;-1.90;99.90;-3.00;100526;;;;584574;246;24111;-91
2023/12/04 02:16:24;;;;;;;5.37;4.40;;;-1.80;99.90;-3.00;100530;;;;585515;242;24069;-90
2023/12/04 02:18:52;;;;;;;5.57;3.97;;;-1.70;99.90;-2.90;100528;;;;573913;251;24136;-90
2023/12/04 02:21:20;;;;;;;10.13;5.90;;;-1.70;99.90;-2.90;100528;;;;585955;242;24132;-90
2023/12/04 02:23:51;;;;;;;14.13;7.43;;;-1.70;99.90;-2.90;100522;;;;584855;242;24119;-89
2023/12/04 02:26:19;;;;;;;13.57;6.43;;;-1.70;99.90;-2.90;100538;;;;573644;246;24174;-89
2023/12/04 02:28:47;;;;;;;9.63;5.57;;;-1.70;99.90;-2.90;100535;;;;573140;251;24182;-91
2023/12/04 02:31:15;;;;;;;8.17;4.80;;;-1.70;99.90;-2.90;100528;;;;584160;246;24104;-89
2023/12/04 02:33:45;;;;;;;8.33;5.80;;;-1.70;99.90;-2.90;100532;;;;584635;241;24159;-91
2023/12/04 02:36:11;;;;;;;9.17;5.33;;;-1.70;99.90;-2.90;100535;;;;573810;248;24137;-89
2023/12/04 02:38:42;;;;;;;8.20;5.50;;;-1.70;99.90;-2.90;100528;;;;584036;242;24138;-88
2023/12/04 02:41:07;;;;;;;7.53;5.00;;;-1.70;99.90;-3.00;100526;;;;584959;240;24050;-89
2023/12/04 02:43:35;;;;;;;7.03;4.70;;;-1.90;99.90;-3.10;100533;;;;583849;242;24093;-90
2023/12/04 02:46:03;;;;;;;6.60;4.83;;;-2.00;99.90;-3.30;100535;;;;584761;243;24146;-88
2023/12/04 02:48:31;;;;;;;6.90;4.83;;;-1.90;99.90;-3.40;100527;;;;583621;242;24104;-89
2023/12/04 02:50:59;;;;;;;7.07;4.40;;;-2.20;99.90;-3.50;100535;;;;585045;243;24097;-89
2023/12/04 02:53:27;;;;;;;8.63;4.90;;;-2.30;99.90;-3.60;100537;;;;583801;246;24097;-90
2023/12/04 02:55:55;;;;;;;8.43;4.13;;;-2.30;99.90;-3.60;100532;;;;584914;243;24067;-88
2023/12/04 02:58:23;;;;;;;6.50;4.53;;;-2.40;99.90;-3.60;100532;;;;583705;242;24096;-90
2023/12/04 03:00:51;;;;;;;7.77;5.20;;;-2.40;99.90;-3.60;100539;;;;584473;243;24130;-90
2023/12/04 03:03:19;;;;;;;4.37;3.63;;;-2.40;99.90;-3.60;100535;;;;583334;246;24135;-89
2023/12/04 03:05:47;;;;;;;5.97;4.93;;;-2.50;99.90;-3.70;100538;;;;583222;246;24121;-89
2023/12/04 03:08:15;;;;;;;7.77;5.17;;;-2.60;99.90;-3.80;100532;;;;583498;246;24109;-88
2023/12/04 03:10:47;;;;;;;7.80;5.37;;;-2.70;99.90;-3.90;100533;;;;584590;243;24108;-88
2023/12/04 03:13:15;;;;;;;5.80;5.17;;;-2.80;99.90;-4.10;100536;;;;572772;248;24131;-89
2023/12/04 03:15:39;;;;;;;7.27;5.27;;;-2.90;99.90;-4.20;100530;;;;584177;245;24132;-88
2023/12/04 03:18:08;;;;;;;5.73;5.17;;;-3.00;99.90;-4.30;100539;;;;583681;244;24084;-89
2023/12/04 03:20:39;;;;;;;8.10;5.57;;;-3.10;99.90;-4.40;100535;;;;587137;242;24081;-89
2023/12/04 03:23:04;;;;;;;5.93;5.30;;;-3.20;99.90;-4.50;100533;;;;574426;250;24124;-88
2023/12/04 03:25:32;;;;;;;6.17;5.03;;;-3.30;99.90;-4.60;100526;;;;585008;242;24059;-90
2023/12/04 03:28:01;;;;;;;6.00;5.03;;;-3.40;99.90;-4.70;100536;;;;574002;250;24144;-88
2023/12/04 03:30:31;;;;;;;7.23;5.27;;;-3.50;99.90;-4.80;100533;;;;585291;241;24097;-89
2023/12/04 03:32:57;;;;;;;6.90;5.17;;;-3.40;99.90;-4.80;100536;;;;584979;241;24084;-89
2023/12/04 03:35:25;;;;;;;6.33;5.27;;;-3.60;99.90;-4.90;100533;;;;584857;241;24125;-89
2023/12/04 03:37:53;;;;;;;6.13;5.00;;;-3.70;99.90;-5.00;100533;;;;585064;242;24107;-90
2023/12/04 03:40:21;;;;;;;5.67;4.50;;;-3.80;99.90;-5.10;100532;;;;584955;246;24136;-91
2023/12/04 03:42:48;;;;;;;8.13;4.97;;;-3.90;99.90;-5.10;100537;;;;584981;242;24171;-91
2023/12/04 03:45:17;;;;;;;4.93;4.40;;;-3.90;99.90;-5.20;100536;;;;585019;246;24084;-90
2023/12/04 03:47:46;;;;;;;5.87;4.80;;;-4.00;99.90;-5.20;100545;;;;585063;246;24085;-91
2023/12/04 03:50:17;;;;;;;7.07;5.43;;;-4.00;99.90;-5.30;100541;;;;585128;245;24072;-90
2023/12/04 03:52:42;;;;;;;6.17;4.93;;;-4.00;99.90;-5.30;100532;;;;584488;246;24090;-89
2023/12/04 03:55:11;;;;;;;6.90;5.30;;;-4.00;99.90;-5.30;100540;;;;584863;246;24147;-89
2023/12/04 03:57:38;;;;;;;6.77;5.10;;;-4.10;99.90;-5.40;100540;;;;584379;246;24103;-90
2023/12/04 04:00:09;;;;;;;8.00;5.37;;;-4.10;99.90;-5.40;100540;;;;583369;242;24153;-89
2023/12/04 04:02:34;;;;;;;5.97;5.00;;;-4.20;99.90;-5.50;100543;;;;583407;246;24100;-89
2023/12/04 04:05:03;;;;;;;7.07;5.20;;;-4.20;99.90;-5.60;100538;;;;583419;246;24154;-90
2023/12/04 04:07:31;;;;;;;8.73;6.73;;;-4.40;99.90;-5.60;100539;;;;584162;246;24162;-89
2023/12/04 04:09:59;;;;;;;6.53;5.53;;;-4.30;99.90;-5.70;100536;;;;583169;246;24121;-90
2023/12/04 04:12:34;;;;;;;9.02;6.03;;;-4.30;99.90;-5.70;100537;;;;577970;246;46259;-88
2023/12/04 04:14:58;;;;;;;8.70;5.83;;;-4.50;99.90;-5.80;100534;;;;582825;246;24136;-89
2023/12/04 04:17:30;;;;;;;9.33;6.20;;;-4.50;99.90;-5.80;100538;;;;584276;243;24065;-89
2023/12/04 04:20:47;;;;;;;7.83;5.67;;;-4.50;99.90;-5.80;100541;;;;572450;251;25156;-88
2023/12/04 04:23:18;;;;;;;9.33;6.40;;;-4.50;99.90;-5.80;100535;;;;583203;242;24115;-89
2023/12/04 04:25:43;;;;;;;7.90;6.30;;;-4.50;99.90;-5.80;100552;;;;571730;247;24126;-89
2023/12/04 04:28:17;;;;;;;6.93;5.73;;;-4.50;99.90;-5.80;100549;;;;583427;246;24134;-87
2023/12/04 04:30:43;;;;;;;10.57;6.87;;;-4.50;99.90;-5.90;100554;;;;573903;247;24114;-88
2023/12/04 04:33:15;;;;;;;8.90;6.17;;;-4.50;99.90;-5.90;100559;;;;572932;250;24169;-89
2023/12/04 04:35:49;;;;;;;7.50;6.30;;;-4.60;99.90;-5.90;100557;;;;584918;246;24103;-87
2023/12/04 04:38:13;;;;;;;12.27;7.13;;;-4.60;99.90;-5.90;100557;;;;583470;246;24110;-88
2023/12/04 04:40:43;;;;;;;7.73;6.73;;;-4.50;99.90;-6.00;100549;;;;573465;247;24193;-88
2023/12/04 04:43:11;;;;;;;10.40;7.47;;;-4.70;99.90;-6.00;100551;;;;583878;242;24100;-89
2023/12/04 04:45:40;;;;;;;11.23;7.83;;;-4.60;99.90;-6.00;100555;;;;574042;250;24144;-88
2023/12/04 04:48:11;;;;;;;11.77;8.03;;;-4.70;99.90;-6.00;100548;;;;563589;251;24141;-88
2023/12/04 04:50:40;;;;;;;13.17;8.07;;;-4.70;99.90;-6.00;100556;;;;573676;246;24101;-89
2023/12/04 04:53:08;;;;;;;8.53;7.37;;;-4.70;99.90;-6.00;100554;;;;591139;239;24111;-79
2023/12/04 04:55:36;;;;;;;9.37;7.53;;;-4.80;99.90;-6.10;100552;;;;591777;237;25068;-79
2023/12/04 04:58:03;;;;;;;8.47;7.37;;;-4.80;99.90;-6.10;100559;;;;582696;242;25156;-78
2023/12/04 05:00:32;;;;;;;9.77;7.67;;;-4.80;99.90;-6.10;100559;;;;580015;242;24053;-78
2023/12/04 05:03:00;;;;;;;8.03;7.20;;;-4.50;99.90;-6.20;100550;;;;583069;242;24104;-78
2023/12/04 05:05:28;;;;;;;10.13;7.63;;;-4.80;99.90;-6.20;100556;;;;580516;242;24103;-79
2023/12/04 05:07:56;;;;;;;11.53;8.50;;;-4.80;99.90;-6.20;100557;;;;582681;242;24049;-77
2023/12/04 05:10:24;;;;;;;10.30;8.33;;;-4.80;99.90;-6.20;100548;;;;582795;240;24070;-77
2023/12/04 05:12:53;;;;;;;10.70;8.43;;;-4.80;99.90;-6.20;100558;;;;599677;235;24002;-80
2023/12/04 05:15:25;;;;;;;13.90;9.90;;;-4.80;99.90;-6.20;100557;;;;598060;238;25112;-80
2023/12/04 05:17:51;;;;;;;14.73;10.53;;;-4.90;99.90;-6.20;100545;;;;588448;240;24118;-79
2023/12/04 05:20:18;;;;;;;14.00;9.93;;;-4.90;99.90;-6.20;100557;;;;609053;235;24011;-79
2023/12/04 05:22:48;;;;;;;11.83;8.93;;;-4.90;99.90;-6.20;100546;;;;587467;240;24015;-79
2023/12/04 05:25:15;;;;;;;13.87;10.83;;;-4.90;99.90;-6.30;100555;;;;599499;235;24017;-77
2023/12/04 05:27:43;;;;;;;15.87;11.87;;;-5.00;99.90;-6.30;100551;;;;588510;240;24059;-79
2023/12/04 05:30:11;;;;;;;18.10;12.57;;;-4.40;99.90;-6.30;100546;;;;596076;237;24006;-78
2023/12/04 05:32:40;;;;;;;17.13;10.53;;;-5.00;99.90;-6.30;100546;;;;588278;240;24062;-79
2023/12/04 05:35:09;;;;;;;12.50;9.47;;;-5.00;99.90;-6.30;100544;;;;599801;235;24063;-79
2023/12/04 05:37:37;;;;;;;15.43;9.63;;;-5.00;99.90;-6.30;100534;;;;595781;237;24041;-79
2023/12/04 05:40:07;;;;;;;31.03;16.00;;;-5.00;99.90;-6.40;100541;;;;592225;236;37555;-79
2023/12/04 05:42:36;;;;;;;32.27;17.63;;;-4.90;99.90;-6.40;100547;;;;600750;235;24072;-79
2023/12/04 05:45:07;;;;;;;22.83;13.67;;;-5.30;99.90;-6.40;100540;;;;599055;236;24045;-79
2023/12/04 05:47:32;;;;;;;13.90;10.63;;;-5.10;99.90;-6.40;100544;;;;598301;236;23976;-80
2023/12/04 05:50:00;;;;;;;12.63;8.30;;;-5.10;99.90;-6.40;100551;;;;598898;236;24008;-79
2023/12/04 05:52:29;;;;;;;14.50;10.70;;;-5.10;99.90;-6.40;100545;;;;598676;236;24011;-81
2023/12/04 05:54:57;;;;;;;13.77;9.40;;;-5.10;99.90;-6.40;100548;;;;598600;236;23992;-79
2023/12/04 05:57:25;;;;;;;15.40;10.53;;;-5.00;99.90;-6.40;100545;;;;598393;236;24070;-79
2023/12/04 05:59:53;;;;;;;15.07;10.73;;;-5.00;99.90;-6.30;100545;;;;598178;236;23982;-79
2023/12/04 06:02:21;;;;;;;14.77;10.17;;;-4.80;99.90;-6.30;100542;;;;597891;236;24082;-79
2023/12/04 06:04:49;;;;;;;14.80;10.63;;;-5.00;99.90;-6.30;100542;;;;597987;236;24011;-79
2023/12/04 06:07:19;;;;;;;15.03;10.20;;;-4.80;99.90;-6.30;100535;;;;598328;236;24062;-78
2023/12/04 06:09:45;;;;;;;12.37;9.80;;;-5.00;99.90;-6.30;100544;;;;590801;239;24114;-79
2023/12/04 06:12:14;;;;;;;12.20;9.63;;;-5.00;99.90;-6.30;100529;;;;596477;237;24130;-79
2023/12/04 06:14:43;;;;;;;12.63;10.20;;;-5.00;99.90;-6.40;100537;;;;597678;236;24042;-78
2023/12/04 06:17:11;;;;;;;12.00;9.17;;;-5.10;99.90;-6.40;100542;;;;597540;236;23969;-79
2023/12/04 06:19:40;;;;;;;14.37;10.07;;;-5.10;99.90;-6.50;100544;;;;597374;236;24005;-78
2023/12/04 06:22:08;;;;;;;15.73;11.50;;;-5.20;99.90;-6.50;100545;;;;597318;236;24022;-78
2023/12/04 06:24:40;;;;;;;18.70;12.93;;;-5.30;99.90;-6.60;100541;;;;597592;236;24115;-79
2023/12/04 06:27:06;;;;;;;16.30;11.87;;;-5.50;99.90;-6.60;100537;;;;597420;236;24060;-79
2023/12/04 06:29:32;;;;;;;14.93;11.37;;;-5.30;99.90;-6.60;100542;;;;597813;236;24001;-78
2023/12/04 06:32:00;;;;;;;16.70;10.80;;;-5.30;99.90;-6.60;100535;;;;598125;236;23983;-77
2023/12/04 06:34:28;;;;;;;17.27;10.73;;;-5.30;99.90;-6.60;100531;;;;598323;236;24040;-76
2023/12/04 06:36:59;;;;;;;16.17;10.80;;;-5.20;99.90;-6.60;100541;;;;598083;236;24088;-80
2023/12/04 06:39:27;;;;;;;15.48;10.43;;;-5.20;99.90;-6.50;100540;;;;592254;236;34733;-80
2023/12/04 06:41:56;;;;;;;14.80;9.37;;;-5.30;99.90;-6.50;100539;;;;597782;236;24016;-79
2023/12/04 06:44:23;;;;;;;15.73;10.27;;;-5.20;99.90;-6.40;100537;;;;597160;236;24012;-79
2023/12/04 06:46:48;;;;;;;14.13;10.03;;;-5.10;99.90;-6.40;100549;;;;596786;236;23978;-78
2023/12/04 06:49:23;;;;;;;13.17;9.87;;;-5.00;99.90;-6.30;100549;;;;597617;236;24019;-77
2023/12/04 06:51:47;;;;;;;15.97;10.33;;;-4.90;99.90;-6.20;100555;;;;597576;236;24027;-78
2023/12/04 06:54:17;;;;;;;12.97;10.60;;;-4.80;99.90;-6.10;100548;;;;599197;235;24005;-81
2023/12/04 06:56:43;;;;;;;14.83;10.87;;;-4.70;99.90;-6.00;100548;;;;599096;236;24031;-80
2023/12/04 06:59:14;;;;;;;12.53;9.80;;;-4.30;99.90;-5.90;100551;;;;598756;236;24007;-82
2023/12/04 07:01:43;;;;;;;15.17;10.23;;;-4.60;99.90;-5.90;100540;;;;598331;236;24076;-83
2023/12/04 07:04:09;;;;;;;13.33;10.10;;;-4.60;99.90;-5.90;100545;;;;598782;236;24034;-80
2023/12/04 07:06:42;;;;;;;14.00;9.97;;;-4.50;99.90;-5.80;100550;;;;598733;236;24053;-80
2023/12/04 07:09:10;;;;;;;14.63;10.37;;;-4.60;99.90;-5.80;100546;;;;598743;236;24088;-82
2023/12/04 07:11:38;;;;;;;15.40;10.73;;;-4.60;99.90;-5.80;100549;;;;598746;236;24000;-78
2023/12/04 07:14:06;;;;;;;15.37;10.53;;;-4.40;99.90;-5.70;100556;;;;598708;236;24059;-80
2023/12/04 07:16:33;;;;;;;16.80;10.90;;;-4.30;99.90;-5.50;100563;;;;598421;236;24011;-77
2023/12/04 07:19:02;;;;;;;15.27;10.23;;;-4.20;99.90;-5.40;100570;;;;606379;236;23981;-77
2023/12/04 07:21:30;;;;;;;16.23;9.17;;;-3.80;99.90;-5.20;100570;;;;597694;236;24034;-78
2023/12/04 07:23:58;;;;;;;13.00;9.13;;;-3.70;99.90;-5.00;100574;;;;597789;236;24020;-78
2023/12/04 07:26:26;;;;;;;12.63;8.90;;;-3.50;99.90;-4.80;100573;;;;597794;236;24040;-81
2023/12/04 07:28:54;;;;;;;9.50;7.80;;;-3.20;99.90;-4.60;100568;;;;597961;236;24019;-78
2023/12/04 07:31:22;;;;;;;11.53;8.27;;;-3.10;99.90;-4.50;100573;;;;597536;236;24001;-78
2023/12/04 07:33:50;;;;;;;10.07;7.70;;;-3.20;99.90;-4.40;100579;;;;597504;236;24058;-78
2023/12/04 07:36:17;;;;;;;9.50;6.67;;;-3.00;99.90;-4.30;100586;;;;598394;236;24043;-78
2023/12/04 07:38:45;;;;;;;9.57;7.20;;;-2.90;99.90;-4.20;100577;;;;598664;236;23987;-80
2023/12/04 07:41:13;;;;;;;10.33;7.27;;;-2.90;99.90;-4.10;100577;;;;598495;236;23994;-78
2023/12/04 07:43:41;;;;;;;9.40;6.90;;;-2.70;99.90;-4.00;100571;;;;598174;236;24004;-77
2023/12/04 07:46:13;;;;;;;10.20;6.53;;;-2.60;99.90;-3.90;100574;;;;597793;236;23973;-77
2023/12/04 07:48:37;;;;;;;8.93;6.30;;;-2.60;99.90;-3.90;100567;;;;606581;235;24024;-77
2023/12/04 07:51:05;;;;;;;9.43;6.50;;;-2.60;99.90;-3.80;100565;;;;597731;236;24005;-77
2023/12/04 07:53:33;;;;;;;12.55;9.73;;;-2.50;99.90;-3.70;100564;;;;592602;236;34721;-77
2023/12/04 07:56:04;;;;;;;11.23;8.37;;;-2.40;99.90;-3.60;100579;;;;597694;236;23992;-79
2023/12/04 07:58:36;;;;;;;11.10;8.37;;;-2.10;99.90;-3.50;100575;;;;597978;236;23977;-79
2023/12/04 08:01:00;;;;;;;12.37;8.63;;;-2.10;99.90;-3.30;100571;;;;597381;236;23989;-78
2023/12/04 08:03:28;;;;;;;11.90;8.17;;;-2.00;99.90;-3.20;100573;;;;597993;236;24103;-79
2023/12/04 08:05:58;;;;;;;12.60;7.97;;;-1.90;99.90;-3.20;100575;;;;599684;235;24032;-79
2023/12/04 08:08:25;;;;;;;14.10;9.23;;;-1.90;99.90;-3.10;100578;;;;599402;232;24051;-78
2023/12/04 08:10:53;;;;;;;12.27;7.97;;;-1.80;99.90;-3.00;100583;;;;599298;236;23987;-77
2023/12/04 08:13:21;;;;;;;12.83;8.00;;;-1.60;99.90;-2.90;100581;;;;599176;236;24069;-78
2023/12/04 08:15:49;;;;;;;10.33;7.97;;;-1.60;99.90;-2.80;100576;;;;598970;236;23995;-78
2023/12/04 08:18:18;;;;;;;11.77;8.90;;;-1.50;99.90;-2.70;100569;;;;598486;236;23991;-76
2023/12/04 08:20:46;;;;;;;14.57;8.97;;;-1.40;99.90;-2.60;100577;;;;598142;236;24034;-78
2023/12/04 08:23:14;;;;;;;15.37;9.07;;;-1.40;99.90;-2.40;100590;;;;598195;236;24013;-79
2023/12/04 08:25:42;;;;;;;12.97;8.47;;;-1.20;99.90;-2.30;100586;;;;597841;236;24007;-78
2023/12/04 08:28:10;;;;;;;12.50;8.37;;;-1.00;99.90;-2.20;100582;;;;598027;236;24134;-79
2023/12/04 08:30:41;;;;;;;11.93;8.57;;;-0.90;99.90;-2.10;100589;;;;597920;236;24127;-79
2023/12/04 08:33:07;;;;;;;13.13;9.00;;;-0.80;99.90;-2.00;100593;;;;597700;236;24060;-79
2023/12/04 08:35:34;;;;;;;14.53;9.30;;;-0.90;99.90;-2.00;100595;;;;598331;236;23980;-78
2023/12/04 08:38:02;;;;;;;12.90;9.53;;;-0.70;99.90;-1.90;100587;;;;598432;236;24020;-79
2023/12/04 08:40:31;;;;;;;12.87;8.77;;;-0.60;99.90;-1.80;100589;;;;598409;236;23980;-78
2023/12/04 08:43:00;;;;;;;13.40;8.80;;;-0.50;99.90;-1.70;100595;;;;598257;236;24082;-78
2023/12/04 08:45:28;;;;;;;11.30;8.80;;;-0.50;99.90;-1.60;100589;;;;598253;236;24025;-78
2023/12/04 08:47:57;;;;;;;11.17;8.30;;;-0.40;99.90;-1.50;100591;;;;597751;236;23996;-78
2023/12/04 08:50:25;;;;;;;12.27;8.33;;;-0.30;99.90;-1.40;100586;;;;597626;236;24071;-78
2023/12/04 08:52:57;;;;;;;15.20;8.63;;;-0.20;99.90;-1.40;100590;;;;597895;236;23983;-78
2023/12/04 08:55:22;;;;;;;14.53;8.63;;;-0.20;99.90;-1.30;100593;;;;597376;236;24024;-79
2023/12/04 08:57:50;;;;;;;12.50;7.60;;;-0.10;99.90;-1.30;100604;;;;597934;236;24033;-80
2023/12/04 09:00:18;;;;;;;12.10;8.07;;;0.00;99.90;-1.20;100598;;;;598053;236;23984;-83
2023/12/04 09:02:46;;;;;;;11.77;7.90;;;-0.10;99.90;-1.20;100605;;;;594745;236;24040;-79
2023/12/04 09:05:17;;;;;;;10.53;7.53;;;0.00;99.90;-1.10;100607;;;;598554;236;23979;-81
2023/12/04 09:07:42;;;;;;;11.00;8.00;;;0.10;99.90;-1.10;100605;;;;598903;236;23996;-81
2023/12/04 09:10:10;;;;;;;13.63;7.63;;;0.00;99.90;-1.10;100617;;;;598203;236;24044;-78
2023/12/04 09:12:38;;;;;;;12.47;8.30;;;0.10;99.90;-1.10;100611;;;;597437;236;23993;-78
2023/12/04 09:15:09;;;;;;;12.87;7.70;;;0.10;99.90;-1.10;100612;;;;597665;236;24033;-80
2023/12/04 09:17:34;;;;;;;9.10;6.70;;;0.00;99.90;-1.10;100603;;;;592054;236;24035;-79
2023/12/04 09:20:02;;;;;;;12.57;8.47;;;0.00;99.90;-1.10;100610;;;;608677;235;24034;-79
2023/12/04 09:22:30;;;;;;;11.63;7.70;;;0.00;99.90;-1.10;100600;;;;598982;236;24007;-79
2023/12/04 09:24:57;;;;;;;11.23;7.97;;;0.10;99.90;-1.10;100602;;;;598901;236;23988;-78
2023/12/04 09:27:25;;;;;;;13.70;8.93;;;0.00;99.90;-1.20;100599;;;;608089;235;23981;-78
2023/12/04 09:29:54;;;;;;;9.93;8.20;;;-0.10;99.90;-1.30;100599;;;;598604;236;24291;-78
2023/12/04 09:32:22;;;;;;;13.00;8.97;;;-0.10;99.90;-1.40;100607;;;;598430;236;23988;-77
2023/12/04 09:34:49;;;;;;;15.23;9.93;;;-0.20;99.90;-1.50;100602;;;;598449;236;24025;-78
2023/12/04 09:37:17;;;;;;;13.73;9.53;;;-0.40;99.90;-1.50;100593;;;;597747;236;23990;-78
2023/12/04 09:39:49;;;;;;;14.10;9.90;;;-0.40;99.90;-1.50;100615;;;;598007;236;24016;-79
2023/12/04 09:42:14;;;;;;;13.70;9.53;;;-0.40;99.90;-1.60;100604;;;;597355;236;24022;-79
2023/12/04 09:44:46;;;;;;;14.73;9.93;;;-0.50;99.90;-1.60;100607;;;;597854;236;24048;-78
2023/12/04 09:47:10;;;;;;;16.90;10.63;;;-0.50;99.90;-1.50;100604;;;;597776;236;24045;-78
2023/12/04 09:49:39;;;;;;;16.00;10.70;;;-0.30;99.90;-1.30;100609;;;;598350;236;24004;-78
2023/12/04 09:52:07;;;;;;;12.87;9.97;;;0.00;99.90;-1.00;100621;;;;598188;236;24041;-79
2023/12/04 09:54:35;;;;;;;11.33;8.57;;;0.20;99.90;-0.80;100615;;;;598060;236;24022;-79
2023/12/04 09:57:03;;;;;;;12.93;9.27;;;0.40;99.90;-0.70;100616;;;;607717;235;24045;-77
2023/12/04 09:59:34;;;;;;;10.03;6.33;;;0.50;99.90;-0.70;100613;;;;597798;236;24023;-77
2023/12/04 10:02:00;;;;;;;11.30;7.00;;;0.40;99.90;-0.80;100607;;;;597831;236;24020;-77
2023/12/04 10:04:28;;;;;;;10.83;7.10;;;0.30;99.90;-0.90;100600;;;;597921;236;24088;-78
2023/12/04 10:06:55;;;;;;;13.53;9.63;;;0.20;99.90;-1.00;100603;;;;597254;236;23999;-78
2023/12/04 10:09:27;;;;;;;12.13;8.53;;;0.10;99.90;-1.10;100611;;;;597398;236;23989;-77
2023/12/04 10:11:51;;;;;;;13.50;8.50;;;0.10;99.90;-1.10;100597;;;;596927;236;24047;-78
2023/12/04 10:14:20;;;;;;;12.60;8.30;;;0.00;99.90;-1.20;100581;;;;597451;236;24057;-77
2023/12/04 10:16:49;;;;;;;23.57;11.77;;;0.00;99.90;-1.20;100591;;;;606888;235;24004;-79
2023/12/04 10:19:31;;;;;;;11.10;8.37;;;0.00;99.90;-1.10;100590;;;;597841;236;24021;-78
2023/12/04 10:22:00;;;;;;;18.07;10.70;;;0.10;99.90;-1.10;100577;;;;597055;236;24007;-78
2023/12/04 10:24:36;;;;;;;14.20;10.00;;;-0.10;99.90;-1.20;100588;;;;591402;236;24055;-82
2023/12/04 10:27:09;;;;;;;13.10;9.53;;;0.00;99.90;-1.20;100597;;;;597856;236;24044;-79
2023/12/04 10:29:45;;;;;;;16.63;10.07;;;-0.10;99.90;-1.20;100597;;;;592579;236;23999;-77
2023/12/04 10:32:12;;;;;;;12.20;8.77;;;-0.10;99.90;-1.20;100593;;;;598475;236;24008;-82
2023/12/04 10:34:44;;;;;;;12.33;8.93;;;-0.10;99.90;-1.30;100601;;;;599081;236;24009;-83
2023/12/04 10:37:12;;;;;;;15.50;9.73;;;-0.20;99.90;-1.30;100593;;;;598941;236;24000;-78
2023/12/04 10:39:51;;;;;;;17.63;10.67;;;-0.20;99.90;-1.30;100592;;;;598663;236;23984;-79
2023/12/04 10:42:32;;;;;;;13.67;10.40;;;-0.20;99.90;-1.30;100592;;;;598701;236;23985;-79
2023/12/04 10:45:00;;;;;;;15.57;9.87;;;-0.20;99.90;-1.30;100593;;;;598781;236;24017;-79
2023/12/04 10:47:31;;;;;;;14.77;9.60;;;-0.20;99.90;-1.30;100605;;;;598706;236;24004;-80
2023/12/04 10:49:59;;;;;;;13.03;8.77;;;-0.20;99.90;-1.30;100590;;;;598458;236;24059;-79
2023/12/04 10:52:30;;;;;;;15.70;9.43;;;-0.20;99.90;-1.20;100594;;;;607393;236;23997;-78
2023/12/04 10:54:55;;;;;;;15.27;10.40;;;0.00;99.90;-1.20;100597;;;;595580;236;24006;-78
2023/12/04 10:57:28;;;;;;;13.60;9.97;;;0.10;99.90;-1.10;100589;;;;597955;236;24045;-77
2023/12/04 10:59:56;;;;;;;16.40;11.30;;;0.00;99.90;-1.10;100588;;;;596545;236;23989;-77
2023/12/04 11:02:24;;;;;;;16.87;10.13;;;0.10;99.90;-1.10;100599;;;;597928;236;23986;-78
2023/12/04 11:04:52;;;;;;;15.40;10.10;;;0.10;99.90;-1.00;100601;;;;597733;236;23993;-79
2023/12/04 11:07:20;;;;;;;14.40;9.20;;;0.10;99.90;-1.00;100595;;;;597862;236;24009;-77
2023/12/04 11:09:48;;;;;;;12.87;8.63;;;0.10;99.90;-1.00;100591;;;;597688;236;24012;-77